createdAt,value
2018-09-22T00:00:44.842Z,45.00
2018-09-22T00:02:16.415Z,46.30
2018-09-22T00:03:47.989Z,44.60
2018-09-22T00:05:19.564Z,48.70
2018-09-22T00:06:51.135Z,44.20
2018-09-22T00:08:22.707Z,48.30
2018-09-22T00:09:54.280Z,44.50
2018-09-22T00:11:26.255Z,42.10
2018-09-22T00:14:28.998Z,43.90
2018-09-22T00:16:00.572Z,46.60
2018-09-22T00:17:32.145Z,46.90
2018-09-22T00:19:03.718Z,49.50
2018-09-22T00:20:35.291Z,48.60
2018-09-22T00:22:06.864Z,46.80
2018-09-22T00:23:38.437Z,49.70
2018-09-22T00:25:10.011Z,50.00
2018-09-22T00:26:41.583Z,52.40
2018-09-22T00:28:13.157Z,48.60
2018-09-22T00:31:16.502Z,44.20
2018-09-22T00:32:47.873Z,45.90
2018-09-22T00:34:19.447Z,53.30
2018-09-22T00:35:51.019Z,45.70
2018-09-22T00:37:22.644Z,51.70
2018-09-22T00:38:54.167Z,51.30
2018-09-22T00:40:25.741Z,45.10
2018-09-22T00:41:57.313Z,42.90
2018-09-22T00:43:28.885Z,42.90
2018-09-22T00:45:00.460Z,43.60
2018-09-22T00:46:32.036Z,52.90
2018-09-22T00:48:03.604Z,49.60
2018-09-22T00:49:35.278Z,49.10
2018-09-22T00:51:06.752Z,51.10
2018-09-22T00:52:38.326Z,49.90
2018-09-22T00:54:09.897Z,55.50
2018-09-22T00:55:41.474Z,54.00
2018-09-22T00:57:13.043Z,55.60
2018-09-22T00:58:44.617Z,62.40
2018-09-22T01:00:16.189Z,57.70
2018-09-22T01:03:19.435Z,69.00
2018-09-22T01:04:51.431Z,73.60
2018-09-22T01:06:22.483Z,70.50
2018-09-22T01:07:54.055Z,66.50
2018-09-22T01:09:25.728Z,63.00
2018-09-22T01:10:57.403Z,70.70
2018-09-22T01:12:28.773Z,62.40
2018-09-22T01:14:00.353Z,72.30
2018-09-22T01:15:31.945Z,74.40
2018-09-22T01:17:03.491Z,73.70
2018-09-22T01:18:35.069Z,79.30
2018-09-22T01:20:06.636Z,81.30
2018-09-22T01:21:38.210Z,93.30
2018-09-22T01:23:09.782Z,102.90
2018-09-22T01:24:41.354Z,98.30
2018-09-22T01:26:12.926Z,114.20
2018-09-22T01:27:44.599Z,125.20
2018-09-22T01:29:16.076Z,123.40
2018-09-22T01:30:47.643Z,121.60
2018-09-22T01:32:19.228Z,136.80
2018-09-22T01:33:50.888Z,135.70
2018-09-22T01:35:22.360Z,151.10
2018-09-22T01:36:54.454Z,136.60
2018-09-22T01:38:25.506Z,134.40
2018-09-22T01:39:57.081Z,124.40
2018-09-22T01:41:28.649Z,136.60
2018-09-22T01:43:00.221Z,146.60
2018-09-22T01:44:31.794Z,158.30
2018-09-22T01:46:03.465Z,175.80
2018-09-22T01:47:34.939Z,180.60
2018-09-22T01:49:06.510Z,175.70
2018-09-22T01:50:38.083Z,173.70
2018-09-22T01:52:09.653Z,175.60
2018-09-22T01:53:41.746Z,174.10
2018-09-22T01:55:12.797Z,164.60
2018-09-22T01:56:44.368Z,169.40
2018-09-22T01:58:15.941Z,154.70
2018-09-22T01:59:47.513Z,164.10
2018-09-22T02:01:19.084Z,149.00
2018-09-22T02:04:22.427Z,159.40
2018-09-22T02:05:53.798Z,169.70
2018-09-22T02:07:25.370Z,155.80
2018-09-22T02:08:57.250Z,181.40
2018-09-22T02:10:28.553Z,161.00
2018-09-22T02:12:00.085Z,159.60
2018-09-22T02:13:31.659Z,191.40
2018-09-22T02:15:03.229Z,191.90
2018-09-22T02:16:35.100Z,180.00
2018-09-22T02:18:06.370Z,165.30
2018-09-22T02:19:37.944Z,181.60
2018-09-22T02:21:09.513Z,182.30
2018-09-22T02:22:41.185Z,180.20
2018-09-22T02:24:12.656Z,163.60
2018-09-22T02:25:44.241Z,163.80
2018-09-22T02:27:15.799Z,182.00
2018-09-22T02:28:47.371Z,161.10
2018-09-22T02:30:18.942Z,174.20
2018-09-22T02:31:50.513Z,173.40
2018-09-22T02:33:22.084Z,178.20
2018-09-22T02:36:25.327Z,181.10
2018-09-22T02:37:56.797Z,164.30
2018-09-22T02:39:28.370Z,154.00
2018-09-22T02:40:59.939Z,158.50
2018-09-22T02:42:31.611Z,149.60
2018-09-22T02:44:03.088Z,163.90
2018-09-22T02:45:34.657Z,158.00
2018-09-22T02:47:06.224Z,160.40
2018-09-22T02:48:38.097Z,162.80
2018-09-22T02:50:09.367Z,165.40
2018-09-22T02:51:40.937Z,167.30
2018-09-22T02:53:12.510Z,161.40
2018-09-22T02:54:44.082Z,179.70
2018-09-22T02:56:15.650Z,164.80
2018-09-22T02:57:47.224Z,171.90
2018-09-22T02:59:18.793Z,178.70
2018-09-22T03:00:50.464Z,182.20
2018-09-22T03:02:21.934Z,169.80
2018-09-22T03:03:53.506Z,198.70
2018-09-22T03:05:25.076Z,195.80
2018-09-22T03:06:56.748Z,235.80
2018-09-22T03:08:28.218Z,182.90
2018-09-22T03:09:59.794Z,181.80
2018-09-22T03:11:31.361Z,217.60
2018-09-22T03:13:02.930Z,200.50
2018-09-22T03:14:34.501Z,209.90
2018-09-22T03:16:06.071Z,223.90
2018-09-22T03:17:37.655Z,249.20
2018-09-22T03:19:09.313Z,228.50
2018-09-22T03:20:40.785Z,206.60
2018-09-22T03:22:12.356Z,220.30
2018-09-22T03:23:44.229Z,213.20
2018-09-22T03:25:15.500Z,243.00
2018-09-22T03:26:47.067Z,229.60
2018-09-22T03:28:18.639Z,211.00
2018-09-22T03:29:50.210Z,210.80
2018-09-22T03:31:21.780Z,212.90
2018-09-22T03:34:24.922Z,210.30
2018-09-22T03:35:56.492Z,256.10
2018-09-22T03:37:28.264Z,277.00
2018-09-22T03:38:59.638Z,231.10
2018-09-22T03:40:31.204Z,222.20
2018-09-22T03:42:02.775Z,207.50
2018-09-22T03:43:34.346Z,189.20
2018-09-22T03:45:05.917Z,190.90
2018-09-22T03:46:37.490Z,216.60
2018-09-22T03:48:09.060Z,209.50
2018-09-22T03:49:40.834Z,202.70
2018-09-22T03:51:12.200Z,185.00
2018-09-22T03:52:43.772Z,192.40
2018-09-22T03:54:15.341Z,196.60
2018-09-22T03:55:47.011Z,209.80
2018-09-22T03:57:18.482Z,218.20
2018-09-22T03:58:50.073Z,206.10
2018-09-22T04:00:21.625Z,203.90
2018-09-22T04:01:53.193Z,206.90
2018-09-22T04:03:24.768Z,202.50
2018-09-22T04:06:27.905Z,220.80
2018-09-22T04:07:59.577Z,201.40
2018-09-22T04:09:31.047Z,204.60
2018-09-22T04:11:02.617Z,230.70
2018-09-22T04:12:34.188Z,226.20
2018-09-22T04:14:05.859Z,226.40
2018-09-22T04:15:37.329Z,230.50
2018-09-22T04:17:08.900Z,208.40
2018-09-22T04:18:40.478Z,222.90
2018-09-22T04:20:12.042Z,216.60
2018-09-22T04:21:43.611Z,266.40
2018-09-22T04:23:15.181Z,221.60
2018-09-22T04:24:46.752Z,248.60
2018-09-22T04:26:18.322Z,252.50
2018-09-22T04:27:49.893Z,236.50
2018-09-22T04:29:21.464Z,248.90
2018-09-22T04:30:53.035Z,226.00
2018-09-22T04:32:24.705Z,223.50
2018-09-22T04:33:56.174Z,240.80
2018-09-22T04:35:27.745Z,245.20
2018-09-22T04:36:59.316Z,220.10
2018-09-22T04:38:30.887Z,219.50
2018-09-22T04:40:02.458Z,245.50
2018-09-22T04:41:34.032Z,223.00
2018-09-22T04:43:05.598Z,247.90
2018-09-22T04:44:37.168Z,251.00
2018-09-22T04:46:08.739Z,263.60
2018-09-22T04:47:40.310Z,255.00
2018-09-22T04:49:11.879Z,220.00
2018-09-22T04:50:43.851Z,213.70
2018-09-22T04:52:15.053Z,221.80
2018-09-22T04:53:46.591Z,233.70
2018-09-22T04:55:18.160Z,250.50
2018-09-22T04:56:49.731Z,257.20
2018-09-22T04:58:21.303Z,258.90
2018-09-22T04:59:52.875Z,232.30
2018-09-22T05:01:24.442Z,236.90
2018-09-22T05:02:56.013Z,248.90
2018-09-22T05:04:27.584Z,272.40
2018-09-22T05:05:59.154Z,253.70
2018-09-22T05:07:30.724Z,244.00
2018-09-22T05:09:02.396Z,265.30
2018-09-22T05:10:33.864Z,232.00
2018-09-22T05:12:05.436Z,236.40
2018-09-22T05:13:37.004Z,328.40
2018-09-22T05:15:08.575Z,429.40
2018-09-22T05:16:40.148Z,473.40
2018-09-22T05:18:11.715Z,437.70
2018-09-22T05:19:43.287Z,471.40
2018-09-22T05:21:14.856Z,441.70
2018-09-22T05:22:46.427Z,365.30
2018-09-22T05:24:17.996Z,397.40
2018-09-22T05:25:49.566Z,440.90
2018-09-22T05:27:21.236Z,444.20
2018-09-22T05:28:52.706Z,373.00
2018-09-22T05:30:24.277Z,453.80
2018-09-22T05:31:55.846Z,524.60
2018-09-22T05:33:27.503Z,468.70
2018-09-22T05:34:58.987Z,440.20
2018-09-22T05:36:30.556Z,499.00
2018-09-22T05:38:02.127Z,459.50
2018-09-22T05:39:33.797Z,497.90
2018-09-22T05:41:05.267Z,456.60
2018-09-22T05:42:36.843Z,486.40
2018-09-22T05:44:08.406Z,479.40
2018-09-22T05:45:40.730Z,461.80
2018-09-22T05:47:11.548Z,427.50
2018-09-22T05:48:43.118Z,424.40
2018-09-22T05:50:14.688Z,447.90
2018-09-22T05:51:46.558Z,419.30
2018-09-22T05:53:17.829Z,428.50
2018-09-22T05:54:49.399Z,408.50
2018-09-22T05:56:20.967Z,425.80
2018-09-22T05:57:52.538Z,417.80
2018-09-22T05:59:24.109Z,393.70
2018-09-22T06:00:55.678Z,441.80
2018-09-22T06:02:27.247Z,479.10
2018-09-22T06:03:59.064Z,511.70
2018-09-22T06:05:30.389Z,490.00
2018-09-22T06:07:01.957Z,434.80
2018-09-22T06:08:33.528Z,475.10
2018-09-22T06:10:05.402Z,439.40
2018-09-22T06:11:36.667Z,414.70
2018-09-22T06:13:08.238Z,459.90
2018-09-22T06:14:39.811Z,397.80
2018-09-22T06:16:11.482Z,353.80
2018-09-22T06:17:43.454Z,354.60
2018-09-22T06:19:14.517Z,364.70
2018-09-22T06:20:46.086Z,355.40
2018-09-22T06:22:17.757Z,377.30
2018-09-22T06:23:49.227Z,373.90
2018-09-22T06:25:20.798Z,347.60
2018-09-22T06:26:52.671Z,358.70
2018-09-22T06:28:23.938Z,344.50
2018-09-22T06:29:55.507Z,348.00
2018-09-22T06:31:27.078Z,347.60
2018-09-22T06:32:58.647Z,312.20
2018-09-22T06:34:30.218Z,311.90
2018-09-22T06:36:01.788Z,298.20
2018-09-22T06:37:33.398Z,299.40
2018-09-22T06:39:04.929Z,304.60
2018-09-22T06:40:36.698Z,300.90
2018-09-22T06:42:08.069Z,300.00
2018-09-22T06:43:39.656Z,292.00
2018-09-22T06:45:11.209Z,289.90
2018-09-22T06:46:42.780Z,293.60
2018-09-22T06:48:14.349Z,291.60
2018-09-22T06:49:45.921Z,307.50
2018-09-22T06:51:17.494Z,283.70
2018-09-22T06:52:49.362Z,295.40
2018-09-22T06:54:20.633Z,263.50
2018-09-22T06:55:52.203Z,285.30
2018-09-22T06:57:23.773Z,264.60
2018-09-22T06:58:55.443Z,261.40
2018-09-22T07:00:26.913Z,283.30
2018-09-22T07:01:58.484Z,275.00
2018-09-22T07:03:30.055Z,289.00
2018-09-22T07:05:01.628Z,254.80
2018-09-22T07:06:33.232Z,264.30
2018-09-22T07:08:04.765Z,245.70
2018-09-22T07:09:36.336Z,256.40
2018-09-22T07:11:08.006Z,239.70
2018-09-22T07:12:39.476Z,243.50
2018-09-22T07:14:11.046Z,241.60
2018-09-22T07:15:43.138Z,246.70
2018-09-22T07:17:14.288Z,245.80
2018-09-22T07:18:45.758Z,232.00
2018-09-22T07:20:17.326Z,234.20
2018-09-22T07:21:48.899Z,214.90
2018-09-22T07:23:20.770Z,239.00
2018-09-22T07:24:52.038Z,254.80
2018-09-22T07:26:23.607Z,265.30
2018-09-22T07:27:55.178Z,267.10
2018-09-22T07:29:26.749Z,275.90
2018-09-22T07:30:58.387Z,250.20
2018-09-22T07:32:29.888Z,262.30
2018-09-22T07:34:01.462Z,260.10
2018-09-22T07:35:33.130Z,287.10
2018-09-22T07:37:04.599Z,306.30
2018-09-22T07:38:36.170Z,304.90
2018-09-22T07:40:07.739Z,283.90
2018-09-22T07:41:39.610Z,315.90
2018-09-22T07:43:10.880Z,294.20
2018-09-22T07:44:42.466Z,290.40
2018-09-22T07:46:14.021Z,292.70
2018-09-22T07:49:17.261Z,279.60
2018-09-22T07:50:48.730Z,258.50
2018-09-22T07:52:20.301Z,264.70
2018-09-22T07:53:51.872Z,262.30
2018-09-22T07:55:23.841Z,237.00
2018-09-22T07:58:26.581Z,227.60
2018-09-22T07:59:58.151Z,232.70
2018-09-22T08:01:29.721Z,230.50
2018-09-22T08:03:01.291Z,220.00
2018-09-22T08:06:04.431Z,229.10
2018-09-22T08:07:36.003Z,215.10
2018-09-22T08:09:07.571Z,214.30
2018-09-22T08:10:39.143Z,206.00
2018-09-22T08:12:10.711Z,219.70
2018-09-22T08:13:42.482Z,222.70
2018-09-22T08:15:13.853Z,223.20
2018-09-22T08:16:45.421Z,192.70
2018-09-22T08:18:16.990Z,195.70
2018-09-22T08:19:48.861Z,178.40
2018-09-22T08:21:20.130Z,196.50
2018-09-22T08:22:52.223Z,193.80
2018-09-22T08:24:23.270Z,188.00
2018-09-22T08:25:55.141Z,184.90
2018-09-22T08:27:26.413Z,186.00
2018-09-22T08:28:57.981Z,199.20
2018-09-22T08:30:29.550Z,181.20
2018-09-22T08:32:01.274Z,183.40
2018-09-22T08:33:32.690Z,185.00
2018-09-22T08:35:04.260Z,196.30
2018-09-22T08:36:36.134Z,180.60
2018-09-22T08:38:07.399Z,181.30
2018-09-22T08:39:38.969Z,172.00
2018-09-22T08:41:10.538Z,191.90
2018-09-22T08:42:42.108Z,187.80
2018-09-22T08:44:13.779Z,210.60
2018-09-22T08:45:45.451Z,186.20
2018-09-22T08:47:16.822Z,186.40
2018-09-22T08:48:48.389Z,222.30
2018-09-22T08:50:20.058Z,257.20
2018-09-22T08:51:51.832Z,226.30
2018-09-22T08:53:23.104Z,280.00
2018-09-22T08:54:54.667Z,265.10
2018-09-22T08:56:26.588Z,221.60
2018-09-22T08:57:57.823Z,206.50
2018-09-22T08:59:29.380Z,192.10
2018-09-22T09:01:00.949Z,193.90
2018-09-22T09:02:32.517Z,192.40
2018-09-22T09:04:04.088Z,204.30
2018-09-22T09:05:35.660Z,198.10
2018-09-22T09:07:07.227Z,171.80
2018-09-22T09:08:38.898Z,158.20
2018-09-22T09:10:10.367Z,157.80
2018-09-22T09:13:13.530Z,163.20
2018-09-22T09:14:45.429Z,166.70
2018-09-22T09:16:16.850Z,161.20
2018-09-22T09:17:48.219Z,156.40
2018-09-22T09:19:19.790Z,165.80
2018-09-22T09:20:51.662Z,168.90
2018-09-22T09:22:22.930Z,174.10
2018-09-22T09:25:26.077Z,157.70
2018-09-22T09:26:57.847Z,157.40
2018-09-22T09:28:29.518Z,133.50
2018-09-22T09:30:00.785Z,149.40
2018-09-22T09:31:32.568Z,129.20
2018-09-22T09:34:35.501Z,122.40
2018-09-22T09:36:07.073Z,106.80
2018-09-22T09:39:10.423Z,105.00
2018-09-22T09:40:42.313Z,82.80
2018-09-22T09:42:13.565Z,77.50
2018-09-22T09:43:45.009Z,88.80
2018-09-22T09:46:49.005Z,65.90
2018-09-22T09:48:19.657Z,69.20
2018-09-22T09:49:51.234Z,61.40
2018-09-22T09:51:22.804Z,65.30
2018-09-22T09:52:54.379Z,62.90
2018-09-22T09:54:26.547Z,62.70
2018-09-22T09:55:57.528Z,56.40
2018-09-22T09:57:29.257Z,50.50
2018-09-22T09:59:01.182Z,51.70
2018-09-22T10:02:04.354Z,48.80
2018-09-22T10:03:35.407Z,41.70
2018-09-22T10:08:10.437Z,46.50
2018-09-22T10:09:41.914Z,54.40
2018-09-22T10:11:13.491Z,53.70
2018-09-22T10:12:44.865Z,51.50
2018-09-22T10:14:16.443Z,49.50
2018-09-22T10:15:48.324Z,53.40
2018-09-22T10:17:19.596Z,60.90
2018-09-22T10:18:51.175Z,69.90
2018-09-22T10:20:23.054Z,63.10
2018-09-22T10:21:54.632Z,67.00
2018-09-22T10:23:25.960Z,62.40
2018-09-22T10:24:57.484Z,60.70
2018-09-22T10:28:01.662Z,61.80
2018-09-22T10:31:04.316Z,52.70
2018-09-22T10:34:06.948Z,56.20
2018-09-22T10:37:10.103Z,51.40
2018-09-22T10:38:42.206Z,43.50
2018-09-22T10:40:13.260Z,42.30
2018-09-22T10:41:45.041Z,42.70
2018-09-22T10:43:16.621Z,47.00
2018-09-22T10:44:48.515Z,44.50
2018-09-22T10:46:19.672Z,42.30
2018-09-22T10:47:51.151Z,44.20
2018-09-22T10:49:22.729Z,41.50
2018-09-22T10:50:54.830Z,41.80
2018-09-22T10:52:25.891Z,41.80
2018-09-22T10:53:57.467Z,38.10
2018-09-22T11:00:04.084Z,41.80
2018-09-22T11:01:35.362Z,38.40
2018-09-22T11:03:07.246Z,40.70
2018-09-22T11:06:10.202Z,39.30
2018-09-22T11:07:41.683Z,39.20
2018-09-22T11:10:45.051Z,36.10
2018-09-22T11:12:17.150Z,36.40
2018-09-22T11:15:20.105Z,38.50
2018-09-22T11:16:51.467Z,36.50
2018-09-22T11:18:22.744Z,36.60
2018-09-22T11:19:54.325Z,37.40
2018-09-22T11:21:26.107Z,37.30
2018-09-22T11:22:57.687Z,40.60
2018-09-22T11:24:29.268Z,40.30
2018-09-22T11:30:35.691Z,37.30
2018-09-22T11:32:07.494Z,40.00
2018-09-22T11:33:38.552Z,33.60
2018-09-22T11:35:10.342Z,35.20
2018-09-22T11:36:41.717Z,29.10
2018-09-22T11:38:13.354Z,30.40
2018-09-22T11:39:44.879Z,29.70
2018-09-22T11:41:16.464Z,35.20
2018-09-22T11:42:48.153Z,30.40
2018-09-22T11:44:19.623Z,31.60
2018-09-22T11:45:51.205Z,34.20
2018-09-22T11:47:22.788Z,34.10
2018-09-22T11:48:54.569Z,35.00
2018-09-22T11:51:57.531Z,28.20
2018-09-22T11:55:01.216Z,32.00
2018-09-22T11:56:32.861Z,30.80
2018-09-22T11:58:03.858Z,29.50
2018-09-22T11:59:35.743Z,33.50
2018-09-22T12:01:07.423Z,27.10
2018-09-22T12:02:38.605Z,25.80
2018-09-22T12:04:10.389Z,25.80
2018-09-22T12:05:42.073Z,30.60
2018-09-22T12:07:13.553Z,31.90
2018-09-22T12:10:17.122Z,27.90
2018-09-22T12:11:48.611Z,28.10
2018-09-22T12:13:19.680Z,26.20
2018-09-22T12:16:22.846Z,25.80
2018-09-22T12:19:26.318Z,18.10
2018-09-22T12:22:29.180Z,22.80
2018-09-22T12:25:32.344Z,22.10
2018-09-22T12:28:35.511Z,17.30
2018-09-22T12:30:07.094Z,16.90
2018-09-22T12:31:38.979Z,19.50
2018-09-22T12:39:16.898Z,16.80
2018-09-22T12:40:48.381Z,17.70
2018-09-22T12:42:19.762Z,16.00
2018-09-22T12:43:51.346Z,16.20
2018-09-22T12:45:22.929Z,15.20
2018-09-22T12:46:55.424Z,20.10
2018-09-22T12:48:26.098Z,17.50
2018-09-22T12:49:58.210Z,16.50
2018-09-22T12:51:29.565Z,20.30
2018-09-22T12:53:00.851Z,15.30
2018-09-22T12:54:32.955Z,16.30
2018-09-22T12:56:04.623Z,14.30
2018-09-22T12:57:35.705Z,16.40
2018-09-22T12:59:07.185Z,15.00
2018-09-22T13:00:39.291Z,15.50
2018-09-22T13:02:10.875Z,13.20
2018-09-22T13:03:42.293Z,11.80
2018-09-22T13:05:14.122Z,13.00
2018-09-22T13:06:45.865Z,14.10
2018-09-22T13:08:16.691Z,13.10
2018-09-22T13:09:48.275Z,14.80
2018-09-22T13:11:20.060Z,12.10
2018-09-22T13:14:23.026Z,12.20
2018-09-22T13:15:55.014Z,12.80
2018-09-22T13:17:26.203Z,9.90
2018-09-22T13:18:58.083Z,9.90
2018-09-22T13:20:29.365Z,11.90
2018-09-22T13:22:00.948Z,9.90
2018-09-22T13:23:33.379Z,8.80
2018-09-22T13:25:04.117Z,11.60
2018-09-22T13:26:35.702Z,8.60
2018-09-22T13:28:07.294Z,7.50
2018-09-22T13:29:39.073Z,7.50
2018-09-22T13:31:10.454Z,8.00
2018-09-22T13:34:14.247Z,6.20
2018-09-22T13:37:16.867Z,5.40
2018-09-22T13:38:48.683Z,5.70
2018-09-22T13:40:20.168Z,5.70
2018-09-22T13:41:52.010Z,6.40
2018-09-22T13:44:55.443Z,6.90
2018-09-22T13:46:26.616Z,7.70
2018-09-22T13:47:58.092Z,6.30
2018-09-22T13:49:29.474Z,6.90
2018-09-22T13:51:01.062Z,6.80
2018-09-22T13:52:32.745Z,6.60
2018-09-22T13:55:36.120Z,6.80
2018-09-22T13:57:07.754Z,7.50
2018-09-22T14:00:11.991Z,9.00
2018-09-22T14:01:42.462Z,7.40
2018-09-22T14:03:13.744Z,3.90
2018-09-22T14:04:45.351Z,4.20
2018-09-22T14:09:20.088Z,5.50
2018-09-22T14:12:23.881Z,4.90
2018-09-22T14:13:54.845Z,3.60
2018-09-22T14:15:26.430Z,3.90
2018-09-22T14:16:58.219Z,5.80
2018-09-22T14:18:29.638Z,3.90
2018-09-22T14:20:01.193Z,4.10
2018-09-22T14:21:32.780Z,4.20
2018-09-22T14:26:07.632Z,4.20
2018-09-22T14:27:39.118Z,5.30
2018-09-22T14:29:10.704Z,4.90
2018-09-22T14:32:14.154Z,4.90
2018-09-22T14:33:45.462Z,5.80
2018-09-22T14:35:17.049Z,5.20
2018-09-22T14:36:48.635Z,4.20
2018-09-22T14:38:20.524Z,4.70
2018-09-22T14:39:51.808Z,4.50
2018-09-22T14:41:23.595Z,4.10
2018-09-22T14:42:55.906Z,3.80
2018-09-22T14:44:27.088Z,4.90
2018-09-22T14:45:58.152Z,3.60
2018-09-22T14:47:30.051Z,4.00
2018-09-22T14:49:01.326Z,4.00
2018-09-22T14:50:33.016Z,3.80
2018-09-22T14:52:04.504Z,4.90
2018-09-22T14:53:36.090Z,4.30
2018-09-22T14:55:07.676Z,5.90
2018-09-22T14:56:39.264Z,4.80
2018-09-22T14:58:11.371Z,3.90
2018-09-22T14:59:42.438Z,4.40
2018-09-22T15:01:14.026Z,4.70
2018-09-22T15:02:45.610Z,3.90
2018-09-22T15:04:17.503Z,3.60
2018-09-22T15:07:20.375Z,3.50
2018-09-22T15:08:52.264Z,3.60
2018-09-22T15:10:24.075Z,4.00
2018-09-22T15:13:26.725Z,3.10
2018-09-22T15:14:58.517Z,2.50
2018-09-22T15:18:01.489Z,2.60
2018-09-22T15:19:33.075Z,3.10
2018-09-22T15:21:04.695Z,2.50
2018-09-22T15:22:36.250Z,2.50
2018-09-22T15:24:07.840Z,2.80
2018-09-22T15:25:39.731Z,2.90
2018-09-22T15:27:11.317Z,2.50
2018-09-22T15:28:42.802Z,3.30
2018-09-22T15:33:17.369Z,3.40
2018-09-22T15:36:21.266Z,2.50
2018-09-22T15:37:52.170Z,3.20
2018-09-22T15:39:23.921Z,3.10
2018-09-22T15:40:56.471Z,2.10
2018-09-22T15:42:27.199Z,2.10
2018-09-22T15:43:58.805Z,1.90
2018-09-22T15:45:30.262Z,2.20
2018-09-22T15:47:01.675Z,1.60
2018-09-22T15:48:33.872Z,2.40
2018-09-22T15:50:05.142Z,2.30
2018-09-22T15:53:08.015Z,2.00
2018-09-22T15:54:39.604Z,2.30
2018-09-22T15:56:11.191Z,2.60
2018-09-22T15:57:42.781Z,2.60
2018-09-22T15:59:14.572Z,2.20
2018-09-22T16:00:46.511Z,2.50
2018-09-22T16:03:49.142Z,3.10
2018-09-22T16:05:21.129Z,2.50
2018-09-22T16:06:52.317Z,2.40
2018-09-22T16:09:55.700Z,2.60
2018-09-22T16:11:27.095Z,2.80
2018-09-22T16:14:30.274Z,2.30
2018-09-22T16:16:01.925Z,2.40
2018-09-22T16:19:05.766Z,4.20
2018-09-22T16:20:37.360Z,2.80
2018-09-22T16:22:08.223Z,2.90
2018-09-22T16:23:40.017Z,3.00
2018-09-22T16:25:11.499Z,3.20
2018-09-22T16:28:14.581Z,5.20
2018-09-22T16:31:17.963Z,2.80
2018-09-22T16:32:49.352Z,2.70
2018-09-22T16:34:20.942Z,2.60
2018-09-22T16:35:52.539Z,2.80
2018-09-22T16:37:24.122Z,3.40
2018-09-22T16:38:55.712Z,3.80
2018-09-22T16:40:27.302Z,5.40
2018-09-22T16:41:58.888Z,5.80
2018-09-22T16:45:02.163Z,4.70
2018-09-22T16:46:33.649Z,5.60
2018-09-22T16:48:05.439Z,5.10
2018-09-22T16:49:36.929Z,6.10
2018-09-22T16:51:09.335Z,5.70
2018-09-22T16:52:39.993Z,5.30
2018-09-22T16:54:11.578Z,5.00
2018-09-22T16:55:43.167Z,5.20
2018-09-22T16:57:14.754Z,5.00
2018-09-22T16:58:46.339Z,6.60
2018-09-22T17:01:49.716Z,6.30
2018-09-22T17:07:56.256Z,5.40
2018-09-22T17:09:27.445Z,5.70
2018-09-22T17:10:59.025Z,6.30
2018-09-22T17:14:02.196Z,6.00
2018-09-22T17:17:05.370Z,5.60
2018-09-22T17:21:40.132Z,5.50
2018-09-22T17:23:11.920Z,5.70
2018-09-22T17:26:14.892Z,5.00
2018-09-22T17:27:46.782Z,5.20
2018-09-22T17:29:18.066Z,4.40
2018-09-22T17:30:49.653Z,5.20
2018-09-22T17:32:21.242Z,5.10
2018-09-22T17:33:52.830Z,5.00
2018-09-22T17:35:24.724Z,5.20
2018-09-22T17:36:56.004Z,5.70
2018-09-22T17:40:00.189Z,4.90
2018-09-22T17:41:31.070Z,5.40
2018-09-22T17:44:34.144Z,5.60
2018-09-22T17:46:05.858Z,4.80
2018-09-22T17:47:37.639Z,5.60
2018-09-22T17:49:09.223Z,4.70
2018-09-22T17:50:40.289Z,4.60
2018-09-22T17:52:12.435Z,4.60
2018-09-22T17:53:43.464Z,5.00
2018-09-22T17:55:15.051Z,5.40
2018-09-22T17:58:18.427Z,5.50
2018-09-22T18:01:21.605Z,5.00
2018-09-22T18:02:52.985Z,5.00
2018-09-22T18:04:24.703Z,4.80
2018-09-22T18:05:56.163Z,5.90
2018-09-22T18:07:27.749Z,5.10
2018-09-22T18:08:59.329Z,4.60
2018-09-22T18:10:30.916Z,5.30
2018-09-22T18:13:34.086Z,6.10
2018-09-22T18:15:05.673Z,6.00
2018-09-22T18:16:37.567Z,5.60
2018-09-22T18:18:08.843Z,6.20
2018-09-22T18:19:40.561Z,6.00
2018-09-22T18:21:12.013Z,5.70
2018-09-22T18:24:15.288Z,5.40
2018-09-22T18:25:46.770Z,5.10
2018-09-22T18:27:18.353Z,5.60
2018-09-22T18:28:49.939Z,5.50
2018-09-22T18:30:21.524Z,5.50
2018-09-22T18:33:24.691Z,5.90
2018-09-22T18:36:27.861Z,5.30
2018-09-22T18:37:59.445Z,4.80
2018-09-22T18:39:31.234Z,5.60
2018-09-22T18:41:02.616Z,5.10
2018-09-22T18:42:34.306Z,5.50
2018-09-22T18:44:05.782Z,5.70
2018-09-22T18:45:37.367Z,6.20
2018-09-22T18:47:08.951Z,6.30
2018-09-22T18:48:40.536Z,6.80
2018-09-22T18:50:12.119Z,7.60
2018-09-22T18:53:15.495Z,6.40
2018-09-22T18:54:46.869Z,7.30
2018-09-22T18:56:18.454Z,6.80
2018-09-22T18:57:50.037Z,7.20
2018-09-22T18:59:21.621Z,8.10
2018-09-22T19:00:54.127Z,6.80
2018-09-22T19:02:25.095Z,7.10
2018-09-22T19:03:56.371Z,7.50
2018-09-22T19:05:27.955Z,9.10
2018-09-22T19:06:59.539Z,8.50
2018-09-22T19:08:31.121Z,8.30
2018-09-22T19:11:34.291Z,8.50
2018-09-22T19:13:06.897Z,9.50
2018-09-22T19:14:37.458Z,9.00
2018-09-22T19:16:09.239Z,10.10
2018-09-22T19:17:40.923Z,9.20
2018-09-22T19:19:12.327Z,9.30
2018-09-22T19:20:43.786Z,9.10
2018-09-22T19:22:15.367Z,10.90
2018-09-22T19:23:47.456Z,10.30
2018-09-22T19:25:18.600Z,10.20
2018-09-22T19:26:50.421Z,9.90
2018-09-22T19:28:21.696Z,10.00
2018-09-22T19:29:53.482Z,10.40
2018-09-22T19:31:24.863Z,9.80
2018-09-22T19:32:56.447Z,12.10
2018-09-22T19:34:28.228Z,11.60
2018-09-22T19:35:59.609Z,11.30
2018-09-22T19:37:31.893Z,10.70
2018-09-22T19:40:34.353Z,11.30
2018-09-22T19:43:38.137Z,11.60
2018-09-22T19:45:09.097Z,11.40
2018-09-22T19:46:40.676Z,11.00
2018-09-22T19:48:12.257Z,11.50
2018-09-22T19:49:44.042Z,12.10
2018-09-22T19:51:15.422Z,12.20
2018-09-22T19:52:47.002Z,12.50
2018-09-22T19:54:18.583Z,12.90
2018-09-22T20:00:25.208Z,14.60
2018-09-22T20:01:56.485Z,15.20
2018-09-22T20:03:28.067Z,15.10
2018-09-22T20:06:31.228Z,17.10
2018-09-22T20:08:02.807Z,17.90
2018-09-22T20:09:34.387Z,17.70
2018-09-22T20:11:05.967Z,17.90
2018-09-22T20:14:09.530Z,19.00
2018-09-22T20:15:40.706Z,19.00
2018-09-22T20:17:12.307Z,19.30
2018-09-22T20:18:44.170Z,20.00
2018-09-22T20:20:15.849Z,20.80
2018-09-22T20:21:47.023Z,20.80
2018-09-22T20:23:18.601Z,20.30
2018-09-22T20:24:50.383Z,19.70
2018-09-22T20:26:21.962Z,19.50
2018-09-22T20:29:24.917Z,19.00
2018-09-22T20:30:56.698Z,20.30
2018-09-22T20:32:28.074Z,18.40
2018-09-22T20:33:59.653Z,19.60
2018-09-22T20:35:31.234Z,19.90
2018-09-22T20:38:34.487Z,21.20
2018-09-22T20:40:05.967Z,21.10
2018-09-22T20:41:37.847Z,21.00
2018-09-22T20:43:09.123Z,21.10
2018-09-22T20:46:12.275Z,21.90
2018-09-22T20:49:15.429Z,23.50
2018-09-22T20:50:47.007Z,24.70
2018-09-22T20:52:18.583Z,21.90
2018-09-22T20:53:50.214Z,25.10
2018-09-22T20:55:21.737Z,25.20
2018-09-22T20:56:53.514Z,24.30
2018-09-22T20:58:25.025Z,25.00
2018-09-22T20:59:56.464Z,26.80
2018-09-22T21:01:28.042Z,26.40
2018-09-22T21:02:59.616Z,26.30
2018-09-22T21:04:31.394Z,26.40
2018-09-22T21:06:02.770Z,28.30
2018-09-22T21:07:34.341Z,27.50
2018-09-22T21:09:05.934Z,30.90
2018-09-22T21:10:37.492Z,28.40
2018-09-22T21:12:09.065Z,29.50
2018-09-22T21:13:40.641Z,30.90
2018-09-22T21:15:13.124Z,29.90
2018-09-22T21:16:44.039Z,31.90
2018-09-22T21:18:15.380Z,31.40
2018-09-22T21:19:46.939Z,33.60
2018-09-22T21:21:18.512Z,32.70
2018-09-22T21:22:50.086Z,33.90
2018-09-22T21:24:21.667Z,33.30
2018-09-22T21:25:53.235Z,33.30
2018-09-22T21:27:24.809Z,33.00
2018-09-22T21:28:56.387Z,35.70
2018-09-22T21:30:27.957Z,36.60
2018-09-22T21:31:59.533Z,35.20
2018-09-22T21:33:31.105Z,32.20
2018-09-22T21:35:02.780Z,34.20
2018-09-22T21:36:34.252Z,36.30
2018-09-22T21:38:05.828Z,34.70
2018-09-22T21:39:37.407Z,36.30
2018-09-22T21:41:08.979Z,34.00
2018-09-22T21:42:40.548Z,35.90
2018-09-22T21:44:12.121Z,36.70
2018-09-22T21:45:44.024Z,34.00
2018-09-22T21:47:15.466Z,36.50
2018-09-22T21:48:46.843Z,36.10
2018-09-22T21:50:18.419Z,36.00
2018-09-22T21:51:49.990Z,34.70
2018-09-22T21:53:21.763Z,31.00
2018-09-22T21:54:53.456Z,33.20
2018-09-22T21:56:24.709Z,35.40
2018-09-22T21:57:56.284Z,34.00
2018-09-22T21:59:27.860Z,32.50
2018-09-22T22:00:59.430Z,32.70
2018-09-22T22:02:31.015Z,32.10
2018-09-22T22:04:02.577Z,34.90